createdAt,value
2022-12-12T00:01:17.159Z,20.00
2022-12-12T00:03:45.266Z,18.50
2022-12-12T00:06:13.196Z,18.00
2022-12-12T00:08:42.808Z,18.50
2022-12-12T00:11:10.747Z,16.75
2022-12-12T00:13:38.671Z,18.50
2022-12-12T00:16:07.216Z,18.25
2022-12-12T00:18:36.822Z,18.00
2022-12-12T00:21:05.361Z,17.50
2022-12-12T00:23:33.273Z,19.50
2022-12-12T00:26:03.206Z,16.75
2022-12-12T00:28:31.341Z,18.75
2022-12-12T00:30:59.272Z,18.00
2022-12-12T00:33:27.240Z,16.25
2022-12-12T00:35:55.510Z,16.00
2022-12-12T00:38:24.337Z,15.25
2022-12-12T00:40:56.058Z,15.50
2022-12-12T00:43:25.451Z,17.00
2022-12-12T00:45:53.316Z,15.00
2022-12-12T00:48:21.713Z,14.50
2022-12-12T00:50:49.600Z,16.25
2022-12-12T00:53:17.586Z,14.00
2022-12-12T00:55:45.438Z,15.00
2022-12-12T00:58:13.321Z,15.50
2022-12-12T01:00:43.774Z,14.50
2022-12-12T01:03:11.666Z,14.00
2022-12-12T01:05:39.610Z,14.25
2022-12-12T01:08:07.543Z,14.50
2022-12-12T01:10:35.755Z,13.25
2022-12-12T01:13:03.634Z,14.50
2022-12-12T01:15:31.542Z,14.25
2022-12-12T01:18:00.796Z,14.00
2022-12-12T01:20:29.063Z,14.50
2022-12-12T01:22:56.978Z,13.00
2022-12-12T01:25:24.827Z,13.00
2022-12-12T01:27:52.769Z,15.00
2022-12-12T01:30:22.135Z,13.00
2022-12-12T01:32:50.104Z,13.00
2022-12-12T01:35:19.453Z,12.25
2022-12-12T01:37:48.321Z,13.50
2022-12-12T01:40:17.857Z,14.00
2022-12-12T01:42:45.786Z,12.00
2022-12-12T01:45:50.734Z,13.00
2022-12-12T01:48:19.461Z,12.00
2022-12-12T01:50:48.774Z,11.00
2022-12-12T01:53:17.469Z,11.75
2022-12-12T01:55:45.830Z,12.00
2022-12-12T01:58:13.707Z,11.25
2022-12-12T02:00:41.773Z,12.00
2022-12-12T02:03:09.663Z,11.00
2022-12-12T02:05:40.381Z,11.25
2022-12-12T02:08:09.820Z,12.75
2022-12-12T02:10:38.133Z,12.00
2022-12-12T02:13:07.817Z,12.25
2022-12-12T02:15:39.040Z,12.00
2022-12-12T02:18:12.531Z,10.75
2022-12-12T02:20:45.184Z,11.75
2022-12-12T02:23:47.660Z,11.00
2022-12-12T02:26:36.938Z,11.25
2022-12-12T02:29:40.994Z,10.50
2022-12-12T02:32:12.686Z,11.00
2022-12-12T02:34:43.867Z,11.00
2022-12-12T02:37:14.071Z,11.25
2022-12-12T02:39:46.057Z,10.50
2022-12-12T02:42:19.599Z,12.00
2022-12-12T02:44:51.349Z,11.00
2022-12-12T02:47:22.436Z,10.25
2022-12-12T02:49:52.827Z,9.75
2022-12-12T02:52:20.724Z,11.00
2022-12-12T02:54:49.596Z,10.00
2022-12-12T02:57:18.258Z,9.50
2022-12-12T02:59:47.976Z,10.25
2022-12-12T03:03:17.336Z,10.00
2022-12-12T03:06:03.951Z,10.50
2022-12-12T03:08:42.153Z,9.00
2022-12-12T03:11:11.686Z,9.00
2022-12-12T03:13:43.755Z,10.00
2022-12-12T03:16:19.264Z,11.00
2022-12-12T03:18:53.385Z,10.25
2022-12-12T03:21:23.467Z,12.50
2022-12-12T03:23:52.426Z,11.00
2022-12-12T03:26:22.482Z,12.00
2022-12-12T03:28:52.224Z,13.00
2022-12-12T03:31:22.119Z,14.25
2022-12-12T03:33:51.947Z,15.00
2022-12-12T03:36:22.947Z,15.25
2022-12-12T03:38:57.038Z,16.00
2022-12-12T03:41:27.286Z,17.50
2022-12-12T03:43:56.888Z,19.00
2022-12-12T03:46:25.864Z,19.00
2022-12-12T03:48:56.681Z,18.25
2022-12-12T03:51:27.492Z,18.00
2022-12-12T03:53:57.827Z,20.00
2022-12-12T03:56:27.262Z,18.50
2022-12-12T03:58:56.749Z,20.00
2022-12-12T04:01:26.288Z,20.50
2022-12-12T04:03:56.922Z,20.00
2022-12-12T04:06:31.022Z,19.75
2022-12-12T04:09:17.444Z,18.75
2022-12-12T04:12:08.419Z,20.00
2022-12-12T04:14:45.179Z,20.00
2022-12-12T04:17:14.820Z,20.50
2022-12-12T04:20:02.294Z,20.00
2022-12-12T04:22:52.878Z,20.00
2022-12-12T04:25:26.181Z,19.75
2022-12-12T04:27:53.672Z,20.00
2022-12-12T04:30:22.010Z,20.25
2022-12-12T04:32:50.816Z,20.00
2022-12-12T04:35:19.625Z,20.00
2022-12-12T04:37:50.481Z,20.00
2022-12-12T04:40:19.468Z,20.50
2022-12-12T04:42:51.666Z,20.00
2022-12-12T04:45:21.402Z,20.00
2022-12-12T04:47:50.331Z,20.00
2022-12-12T04:50:18.251Z,20.75
2022-12-12T04:52:46.172Z,19.50
2022-12-12T04:55:16.573Z,19.75
2022-12-12T04:57:45.824Z,18.00
2022-12-12T05:00:14.988Z,19.50
2022-12-12T05:02:51.548Z,18.00
2022-12-12T05:05:20.263Z,18.75
2022-12-12T05:07:50.484Z,18.50
2022-12-12T05:10:20.544Z,16.00
2022-12-12T05:12:49.439Z,17.75
2022-12-12T05:15:18.398Z,18.00
2022-12-12T05:17:47.766Z,17.75
2022-12-12T05:20:16.399Z,17.00
2022-12-12T05:22:44.262Z,15.75
2022-12-12T05:25:12.368Z,17.00
2022-12-12T05:27:41.774Z,16.25
2022-12-12T05:30:11.450Z,15.25
2022-12-12T05:32:39.328Z,16.25
2022-12-12T05:35:08.992Z,16.00
2022-12-12T05:37:36.895Z,15.50
2022-12-12T05:40:05.344Z,14.00
2022-12-12T05:42:33.316Z,15.25
2022-12-12T05:45:02.616Z,13.75
2022-12-12T05:47:30.480Z,15.00
2022-12-12T05:49:58.677Z,13.25
2022-12-12T05:52:27.440Z,13.75
2022-12-12T05:54:55.593Z,13.50
2022-12-12T05:57:23.466Z,13.00
2022-12-12T05:59:52.042Z,12.50
2022-12-12T06:02:21.400Z,13.00
2022-12-12T06:04:49.380Z,13.00
2022-12-12T06:07:17.287Z,14.00
2022-12-12T06:09:45.466Z,14.00
2022-12-12T06:12:13.518Z,12.25
2022-12-12T06:14:41.506Z,12.00
2022-12-12T06:17:09.431Z,14.00
2022-12-12T06:19:38.993Z,12.25
2022-12-12T06:22:06.884Z,11.00
2022-12-12T06:24:35.010Z,12.75
2022-12-12T06:27:03.290Z,11.00
2022-12-12T06:29:31.144Z,12.00
2022-12-12T06:31:59.320Z,11.75
2022-12-12T06:34:27.212Z,12.00
2022-12-12T06:36:56.481Z,10.25
2022-12-12T06:39:25.145Z,11.25
2022-12-12T06:41:53.005Z,10.25
2022-12-12T06:44:21.242Z,11.00
2022-12-12T06:46:49.157Z,10.00
2022-12-12T06:49:17.340Z,9.50
2022-12-12T06:51:45.209Z,9.25
2022-12-12T06:58:05.222Z,10.00
2022-12-12T07:00:33.391Z,9.75
2022-12-12T07:03:01.329Z,10.00
2022-12-12T07:05:29.454Z,9.50
2022-12-12T07:07:57.372Z,8.50
2022-12-12T07:10:25.566Z,8.50
2022-12-12T07:12:57.288Z,9.00
2022-12-12T07:15:26.777Z,9.00
2022-12-12T07:17:55.641Z,8.75
2022-12-12T07:20:23.737Z,9.00
2022-12-12T07:22:51.617Z,10.00
2022-12-12T07:25:19.579Z,11.25
2022-12-12T07:27:47.447Z,12.75
2022-12-12T07:30:16.342Z,11.75
2022-12-12T07:32:45.627Z,12.50
2022-12-12T07:35:13.851Z,13.25
2022-12-12T07:37:41.988Z,15.25
2022-12-12T07:40:11.042Z,15.25
2022-12-12T07:42:38.887Z,17.00
2022-12-12T07:45:14.971Z,16.50
2022-12-12T07:47:47.317Z,17.75
2022-12-12T07:50:15.504Z,19.00
2022-12-12T07:52:43.608Z,19.00
2022-12-12T07:55:12.304Z,18.00
2022-12-12T07:57:41.402Z,19.75
2022-12-12T08:00:14.315Z,19.50
2022-12-12T08:02:42.225Z,19.25
2022-12-12T08:05:12.047Z,19.75
2022-12-12T08:07:40.222Z,19.25
2022-12-12T08:10:08.842Z,19.00
2022-12-12T08:12:36.724Z,20.00
2022-12-12T08:15:04.962Z,20.25
2022-12-12T08:17:32.905Z,19.50
2022-12-12T08:20:01.095Z,18.00
2022-12-12T08:22:30.376Z,19.00
2022-12-12T08:24:58.238Z,20.00
2022-12-12T08:27:26.152Z,19.00
2022-12-12T08:29:54.559Z,19.75
2022-12-12T08:32:22.502Z,17.50
2022-12-12T08:34:50.345Z,19.00
2022-12-12T08:37:18.240Z,19.50
2022-12-12T08:39:52.723Z,19.00
2022-12-12T08:42:23.353Z,19.00
2022-12-12T08:44:51.337Z,18.50
2022-12-12T08:47:19.234Z,18.75
2022-12-12T08:49:47.445Z,16.75
2022-12-12T08:52:15.300Z,16.25
2022-12-12T08:54:43.542Z,16.75
2022-12-12T08:57:12.852Z,17.00
2022-12-12T08:59:41.019Z,16.00
2022-12-12T09:02:10.489Z,17.25
2022-12-12T09:04:38.394Z,16.75
2022-12-12T09:07:08.643Z,17.25
2022-12-12T09:09:37.104Z,15.50
2022-12-12T09:12:05.228Z,19.25
2022-12-12T09:14:34.571Z,19.00
2022-12-12T09:17:02.528Z,18.75
2022-12-12T09:19:31.106Z,19.00
2022-12-12T09:21:58.981Z,20.00
2022-12-12T09:24:26.946Z,19.50
2022-12-12T09:26:54.853Z,20.00
2022-12-12T09:29:23.000Z,20.00
2022-12-12T09:31:52.353Z,20.00
2022-12-12T09:34:20.259Z,20.50
2022-12-12T09:36:48.106Z,19.00
2022-12-12T09:39:16.283Z,20.00
2022-12-12T09:41:44.171Z,20.00
2022-12-12T09:44:12.546Z,20.00
2022-12-12T09:46:42.078Z,20.00
2022-12-12T09:49:16.536Z,20.00
2022-12-12T09:51:45.911Z,19.75
2022-12-12T09:54:15.486Z,20.00
2022-12-12T09:56:49.419Z,20.00
2022-12-12T09:59:19.045Z,20.00
2022-12-12T10:01:53.659Z,20.25
2022-12-12T10:04:25.733Z,19.25
2022-12-12T10:06:56.395Z,19.25
2022-12-12T10:09:36.050Z,20.00
2022-12-12T10:12:07.999Z,20.00
2022-12-12T10:14:38.202Z,18.50
2022-12-12T10:17:07.834Z,20.00
2022-12-12T10:19:47.447Z,21.00
2022-12-12T10:22:17.666Z,20.00
2022-12-12T10:24:46.964Z,20.00
2022-12-12T10:27:15.231Z,20.50
2022-12-12T10:29:46.900Z,20.50
2022-12-12T10:32:19.413Z,20.00
2022-12-12T10:34:55.400Z,21.75
2022-12-12T10:37:35.388Z,21.00
2022-12-12T10:40:10.505Z,21.25
2022-12-12T10:42:39.912Z,20.75
2022-12-12T10:45:30.797Z,21.50
2022-12-12T10:47:58.700Z,22.00
2022-12-12T10:50:31.496Z,20.75
2022-12-12T10:52:59.514Z,20.00
2022-12-12T10:55:36.323Z,20.00
2022-12-12T10:58:05.217Z,20.50
2022-12-12T11:00:34.614Z,19.75
2022-12-12T11:03:12.807Z,20.00
2022-12-12T11:05:42.537Z,20.00
2022-12-12T11:08:20.936Z,19.50
2022-12-12T11:11:00.714Z,18.00
2022-12-12T11:13:28.655Z,19.50
2022-12-12T11:15:58.958Z,18.00
2022-12-12T11:18:27.108Z,18.25
2022-12-12T11:21:03.457Z,18.25
2022-12-12T11:23:31.341Z,18.25
2022-12-12T11:26:00.000Z,17.00
2022-12-12T11:28:29.558Z,17.00
2022-12-12T11:30:57.450Z,16.00
2022-12-12T11:33:31.342Z,16.25
2022-12-12T11:36:01.826Z,15.00
2022-12-12T11:38:31.789Z,15.75
2022-12-12T11:41:01.221Z,15.50
2022-12-12T11:43:29.786Z,13.75
2022-12-12T11:46:05.112Z,13.75
2022-12-12T11:48:44.474Z,13.50
2022-12-12T11:51:13.771Z,14.00
2022-12-12T11:53:42.606Z,12.00
2022-12-12T11:56:17.664Z,12.25
2022-12-12T11:58:47.181Z,12.00
2022-12-12T12:01:18.692Z,13.00
2022-12-12T12:03:57.563Z,14.25
2022-12-12T12:06:34.368Z,13.75
2022-12-12T12:09:22.745Z,12.00
2022-12-12T12:11:56.395Z,13.00
2022-12-12T12:15:18.297Z,11.50
2022-12-12T12:17:57.944Z,11.00
2022-12-12T12:20:30.909Z,10.75
2022-12-12T12:23:03.303Z,12.25
2022-12-12T12:25:39.054Z,10.50
2022-12-12T12:28:22.424Z,11.00
2022-12-12T12:30:53.235Z,10.00
2022-12-12T12:33:30.216Z,10.25
2022-12-12T12:36:02.789Z,10.00
2022-12-12T12:38:42.953Z,10.50
2022-12-12T12:41:22.935Z,10.00
2022-12-12T12:44:01.401Z,10.00
2022-12-12T12:46:35.352Z,9.00
2022-12-12T12:49:05.977Z,9.00
2022-12-12T12:51:35.357Z,8.00
2022-12-12T12:54:06.168Z,9.00
2022-12-12T12:56:36.728Z,8.25
2022-12-12T12:59:11.570Z,8.50
2022-12-12T13:01:40.551Z,9.75
2022-12-12T13:04:13.091Z,8.50
2022-12-12T13:06:43.624Z,8.00
2022-12-12T13:09:19.681Z,8.00
2022-12-12T13:11:48.747Z,9.00
2022-12-12T13:14:18.052Z,9.00
2022-12-12T13:16:45.952Z,7.00
2022-12-12T13:19:16.471Z,8.00
2022-12-12T13:21:47.960Z,8.00
2022-12-12T13:24:19.392Z,9.00
2022-12-12T13:26:50.284Z,8.00
2022-12-12T13:29:36.613Z,7.00
2022-12-12T13:32:29.155Z,7.25
2022-12-12T13:35:00.843Z,8.00
2022-12-12T13:37:28.795Z,7.00
2022-12-12T13:40:01.979Z,7.50
2022-12-12T13:42:48.587Z,7.00
2022-12-12T13:45:43.951Z,8.00
2022-12-12T13:48:46.456Z,8.75
2022-12-12T13:51:36.926Z,8.00
2022-12-12T13:54:54.688Z,7.00
2022-12-12T13:57:29.683Z,8.00
2022-12-12T14:00:20.131Z,9.50
2022-12-12T14:03:29.280Z,9.00
2022-12-12T14:06:08.291Z,10.00
2022-12-12T14:08:36.896Z,10.00
2022-12-12T14:11:06.416Z,12.00
2022-12-12T14:13:45.455Z,12.00
2022-12-12T14:16:21.918Z,12.00
2022-12-12T14:19:08.781Z,11.50
2022-12-12T14:21:47.470Z,13.00
2022-12-12T14:24:47.953Z,12.25
2022-12-12T14:27:16.140Z,14.50
2022-12-12T14:29:45.792Z,12.50
2022-12-12T14:32:23.493Z,12.25
2022-12-12T14:34:54.087Z,14.00
2022-12-12T14:37:34.464Z,14.50
2022-12-12T14:40:04.670Z,14.00
2022-12-12T14:43:19.725Z,13.00
2022-12-12T14:45:35.094Z,13.00
2022-12-12T14:48:16.622Z,14.50
2022-12-12T14:51:06.629Z,13.00
2022-12-12T14:53:42.893Z,15.25
2022-12-12T14:56:11.749Z,15.25
2022-12-12T14:58:41.383Z,14.75
2022-12-12T15:01:10.651Z,15.00
2022-12-12T15:03:40.187Z,14.00
2022-12-12T15:06:30.952Z,16.50
2022-12-12T15:09:07.522Z,15.00
2022-12-12T15:11:35.675Z,16.00
2022-12-12T15:14:03.904Z,15.75
2022-12-12T15:16:47.504Z,17.00
2022-12-12T15:19:17.362Z,17.25
2022-12-12T15:21:45.309Z,19.00
2022-12-12T15:24:18.388Z,19.50
2022-12-12T15:26:46.460Z,19.00
2022-12-12T15:29:17.725Z,17.25
2022-12-12T15:31:47.516Z,17.50
2022-12-12T15:34:34.940Z,17.00
2022-12-12T15:37:23.321Z,18.00
2022-12-12T15:40:20.071Z,18.00
2022-12-12T15:42:51.559Z,19.75
2022-12-12T15:45:21.718Z,18.25
2022-12-12T15:47:52.422Z,19.50
2022-12-12T15:50:21.406Z,20.00
2022-12-12T15:52:58.123Z,20.50
2022-12-12T15:55:26.048Z,20.00
2022-12-12T15:57:54.094Z,21.50
2022-12-12T16:00:30.412Z,22.00
2022-12-12T16:03:01.032Z,22.50
2022-12-12T16:05:31.307Z,23.00
2022-12-12T16:08:33.400Z,23.00
2022-12-12T16:11:02.182Z,23.00
2022-12-12T16:13:36.359Z,22.50
2022-12-12T16:16:38.778Z,23.00
2022-12-12T16:19:17.977Z,24.00
2022-12-12T16:21:45.871Z,22.00
2022-12-12T16:24:21.225Z,23.25
2022-12-12T16:26:49.231Z,23.00
2022-12-12T16:29:17.399Z,22.00
2022-12-12T16:31:46.380Z,21.50
2022-12-12T16:34:15.799Z,22.50
2022-12-12T16:36:43.687Z,23.50
2022-12-12T16:39:13.797Z,23.00
2022-12-12T16:41:41.788Z,23.00
2022-12-12T16:44:09.631Z,23.00
2022-12-12T16:46:37.506Z,23.50
2022-12-12T16:49:07.408Z,23.00
2022-12-12T16:51:41.085Z,24.00
2022-12-12T16:54:14.274Z,22.00
2022-12-12T16:56:42.247Z,22.50
2022-12-12T16:59:10.517Z,23.00
2022-12-12T17:01:39.033Z,23.00
2022-12-12T17:04:08.179Z,22.00
2022-12-12T17:06:36.079Z,23.00
2022-12-12T17:09:05.664Z,22.00
2022-12-12T17:11:33.608Z,22.00
2022-12-12T17:14:01.561Z,21.50
2022-12-12T17:16:29.484Z,21.75
2022-12-12T17:18:58.436Z,21.00
2022-12-12T17:21:26.381Z,22.00
2022-12-12T17:23:54.392Z,21.50
2022-12-12T17:26:24.816Z,20.75
2022-12-12T17:28:52.997Z,20.00
2022-12-12T17:31:20.954Z,20.25
2022-12-12T17:33:51.133Z,20.00
2022-12-12T17:36:19.341Z,19.50
2022-12-12T17:38:48.140Z,20.00
2022-12-12T17:41:16.239Z,19.00
2022-12-12T17:43:49.356Z,20.50
2022-12-12T17:46:19.996Z,18.25
2022-12-12T17:48:48.641Z,19.25
2022-12-12T17:51:17.285Z,18.00
2022-12-12T17:53:45.232Z,17.75
2022-12-12T17:56:14.052Z,16.75
2022-12-12T17:58:43.521Z,18.25
2022-12-12T18:01:13.531Z,17.00
2022-12-12T18:03:41.745Z,15.00
2022-12-12T18:06:09.794Z,17.00
2022-12-12T18:08:38.246Z,16.75
2022-12-12T18:11:07.803Z,16.75
2022-12-12T18:13:36.465Z,15.75
2022-12-12T18:16:04.665Z,15.00
2022-12-12T18:18:34.206Z,16.75
2022-12-12T18:21:04.163Z,15.00
2022-12-12T18:23:32.094Z,15.75
2022-12-12T18:26:04.407Z,16.50
2022-12-12T18:28:32.293Z,15.75
2022-12-12T18:31:00.472Z,14.75
2022-12-12T18:33:28.395Z,15.75
2022-12-12T18:36:03.681Z,15.25
2022-12-12T18:38:31.904Z,15.00
2022-12-12T18:41:00.169Z,14.25
2022-12-12T18:43:28.093Z,15.00
2022-12-12T18:45:56.202Z,15.00
2022-12-12T18:48:24.511Z,13.25
2022-12-12T18:50:52.348Z,14.00
2022-12-12T18:53:21.666Z,14.00
2022-12-12T18:55:49.588Z,14.50
2022-12-12T18:58:17.761Z,14.75
2022-12-12T19:00:47.027Z,14.50
2022-12-12T19:03:14.991Z,15.00
2022-12-12T19:05:43.063Z,15.25
2022-12-12T19:08:11.068Z,16.00
2022-12-12T19:10:40.895Z,13.75
2022-12-12T19:13:08.775Z,15.00
2022-12-12T19:15:36.703Z,13.00
2022-12-12T19:18:04.938Z,13.00
2022-12-12T19:20:32.816Z,13.25
2022-12-12T19:23:00.679Z,15.00
2022-12-12T19:25:28.557Z,15.75
2022-12-12T19:27:57.941Z,14.75
2022-12-12T19:30:28.044Z,14.00
2022-12-12T19:32:56.247Z,14.00
2022-12-12T19:35:24.212Z,14.00
2022-12-12T19:37:52.080Z,14.75
2022-12-12T19:40:20.428Z,15.75
2022-12-12T19:42:48.317Z,15.75
2022-12-12T19:45:17.784Z,14.00
2022-12-12T19:47:45.631Z,13.25
2022-12-12T19:50:14.011Z,14.75
2022-12-12T19:52:42.109Z,14.00
2022-12-12T19:55:10.503Z,14.00
2022-12-12T19:57:38.350Z,14.00
2022-12-12T20:00:09.604Z,12.75
2022-12-12T20:02:38.946Z,13.75
2022-12-12T20:05:07.158Z,14.00
2022-12-12T20:07:35.895Z,13.50
2022-12-12T20:10:04.310Z,15.00
2022-12-12T20:12:32.326Z,14.00
2022-12-12T20:15:00.554Z,13.75
2022-12-12T20:17:28.507Z,13.75
2022-12-12T20:19:58.193Z,15.00
2022-12-12T20:22:26.226Z,14.75
2022-12-12T20:24:54.344Z,15.50
2022-12-12T20:27:22.290Z,13.25
2022-12-12T20:29:50.555Z,14.50
2022-12-12T20:32:18.620Z,13.00
2022-12-12T20:34:46.743Z,14.00
2022-12-12T20:37:19.973Z,13.75
2022-12-12T20:39:48.588Z,14.25
2022-12-12T20:42:16.482Z,14.50
2022-12-12T20:44:44.414Z,14.75
2022-12-12T20:47:17.478Z,12.75
2022-12-12T20:49:45.704Z,14.00
2022-12-12T20:52:15.088Z,13.00
2022-12-12T20:54:43.051Z,13.50
2022-12-12T20:57:10.943Z,12.75
2022-12-12T20:59:39.120Z,15.50
2022-12-12T21:02:07.318Z,15.00
2022-12-12T21:04:35.356Z,14.75
2022-12-12T21:07:04.302Z,17.75
2022-12-12T21:09:34.145Z,17.25
2022-12-12T21:12:02.053Z,20.00
2022-12-12T21:14:31.012Z,19.50
2022-12-12T21:16:59.263Z,20.00
2022-12-12T21:19:27.523Z,19.75
2022-12-12T21:21:56.404Z,20.50
2022-12-12T21:24:24.590Z,22.00
2022-12-12T21:26:54.052Z,21.00
2022-12-12T21:29:22.422Z,21.75
2022-12-12T21:31:52.360Z,22.00
2022-12-12T21:34:21.575Z,22.00
2022-12-12T21:36:51.834Z,21.50
2022-12-12T21:39:20.308Z,22.75
2022-12-12T21:41:48.199Z,23.00
2022-12-12T21:44:17.487Z,23.00
2022-12-12T21:46:45.530Z,22.75
2022-12-12T21:49:36.771Z,23.00
2022-12-12T21:52:05.533Z,23.00
2022-12-12T21:54:33.817Z,23.25
2022-12-12T21:57:02.815Z,23.00
2022-12-12T21:59:32.582Z,23.00
2022-12-12T22:02:01.353Z,23.00
2022-12-12T22:04:29.485Z,22.75
2022-12-12T22:06:58.172Z,23.00
2022-12-12T22:09:26.395Z,23.00
2022-12-12T22:12:03.017Z,21.50
2022-12-12T22:14:34.090Z,23.00
2022-12-12T22:17:02.165Z,23.00
2022-12-12T22:19:30.403Z,23.00
2022-12-12T22:21:58.272Z,22.50
2022-12-12T22:24:26.477Z,21.75
2022-12-12T22:26:54.394Z,22.00
2022-12-12T22:29:22.610Z,22.25
2022-12-12T22:31:52.509Z,22.00
2022-12-12T22:34:21.532Z,20.00
2022-12-12T22:36:49.596Z,21.00
2022-12-12T22:39:20.141Z,20.50
2022-12-12T22:41:48.160Z,21.00
2022-12-12T22:44:17.313Z,20.00
2022-12-12T22:46:45.286Z,20.00
2022-12-12T22:49:15.307Z,21.00
2022-12-12T22:51:43.534Z,19.75
2022-12-12T22:54:11.583Z,20.00
2022-12-12T22:56:40.305Z,19.75
2022-12-12T22:59:08.749Z,20.50
2022-12-12T23:01:37.223Z,20.00
2022-12-12T23:04:05.382Z,20.00
2022-12-12T23:06:35.839Z,20.00
2022-12-12T23:09:05.177Z,21.00
2022-12-12T23:11:33.298Z,20.75
2022-12-12T23:14:04.609Z,21.75
2022-12-12T23:16:34.501Z,21.00
2022-12-12T23:19:02.877Z,21.75
2022-12-12T23:21:30.761Z,21.50
2022-12-12T23:24:00.080Z,22.00
2022-12-12T23:26:30.008Z,22.00
2022-12-12T23:28:58.295Z,22.00
2022-12-12T23:31:27.555Z,22.75
2022-12-12T23:33:56.115Z,22.75
2022-12-12T23:36:24.254Z,24.00
2022-12-12T23:38:55.663Z,22.00
2022-12-12T23:41:24.969Z,22.00
2022-12-12T23:43:52.899Z,23.50
2022-12-12T23:46:29.824Z,23.00
2022-12-12T23:48:57.859Z,23.25
2022-12-12T23:51:26.100Z,23.75
2022-12-12T23:53:55.711Z,23.00
2022-12-12T23:56:24.993Z,22.00
2022-12-12T23:58:53.230Z,22.00
